createdAt,value
2023-04-27T00:00:39.644Z,64.77
2023-04-27T00:03:07.581Z,85.79
2023-04-27T00:05:35.714Z,146.68
2023-04-27T00:08:03.391Z,143.86
2023-04-27T00:10:31.029Z,52.46
2023-04-27T00:12:58.663Z,59.74
2023-04-27T00:15:28.624Z,56.81
2023-04-27T00:17:56.255Z,61.08
2023-04-27T00:20:23.947Z,58.89
2023-04-27T00:22:51.511Z,66.26
2023-04-27T00:25:19.166Z,65.72
2023-04-27T00:27:46.735Z,56.16
2023-04-27T00:30:14.723Z,56.39
2023-04-27T00:32:43.700Z,69.11
2023-04-27T00:35:11.616Z,77.97
2023-04-27T00:37:39.740Z,145.91
2023-04-27T00:40:08.536Z,85.00
2023-04-27T00:42:36.322Z,88.41
2023-04-27T00:45:05.953Z,86.45
2023-04-27T00:47:34.661Z,90.15
2023-04-27T00:50:04.345Z,94.20
2023-04-27T00:52:32.050Z,103.25
2023-04-27T00:55:04.339Z,111.76
2023-04-27T00:57:34.035Z,108.25
2023-04-27T01:00:02.000Z,131.94
2023-04-27T01:02:30.176Z,119.13
2023-04-27T01:04:58.077Z,99.33
2023-04-27T01:07:27.229Z,99.60
2023-04-27T01:09:55.133Z,139.80
2023-04-27T01:12:22.829Z,111.34
2023-04-27T01:14:52.840Z,126.40
2023-04-27T01:17:20.456Z,99.82
2023-04-27T01:19:48.124Z,88.95
2023-04-27T01:22:15.766Z,97.45
2023-04-27T01:24:44.696Z,98.94
2023-04-27T01:27:12.298Z,104.63
2023-04-27T01:29:40.184Z,109.41
2023-04-27T01:32:08.187Z,108.65
2023-04-27T01:34:36.303Z,117.95
2023-04-27T01:37:04.331Z,113.68
2023-04-27T01:39:32.102Z,121.40
2023-04-27T01:42:01.048Z,132.31
2023-04-27T01:44:28.634Z,147.81
2023-04-27T01:46:56.508Z,121.82
2023-04-27T01:49:24.289Z,136.56
2023-04-27T01:51:52.322Z,148.60
2023-04-27T01:54:21.190Z,134.09
2023-04-27T01:56:48.783Z,175.35
2023-04-27T01:59:17.992Z,173.27
2023-04-27T02:01:45.748Z,113.36
2023-04-27T02:04:13.499Z,152.37
2023-04-27T02:06:41.573Z,99.53
2023-04-27T02:09:09.144Z,97.48
2023-04-27T02:11:36.708Z,151.85
2023-04-27T02:14:04.717Z,118.57
2023-04-27T02:16:33.893Z,109.89
2023-04-27T02:19:01.535Z,106.40
2023-04-27T02:21:29.225Z,132.80
2023-04-27T02:23:57.060Z,121.85
2023-04-27T02:26:24.726Z,152.16
2023-04-27T02:28:52.393Z,111.48
2023-04-27T02:31:20.569Z,149.39
2023-04-27T02:33:49.638Z,138.08
2023-04-27T02:36:17.377Z,127.55
2023-04-27T02:38:45.016Z,130.75
2023-04-27T02:41:14.201Z,455.49
2023-04-27T02:43:41.773Z,179.53
2023-04-27T02:46:09.496Z,147.21
2023-04-27T02:48:37.076Z,115.45
2023-04-27T02:51:06.401Z,127.28
2023-04-27T02:53:33.988Z,125.02
2023-04-27T02:56:01.675Z,104.41
2023-04-27T02:58:29.250Z,112.87
2023-04-27T03:00:57.740Z,111.31
2023-04-27T03:03:26.775Z,129.85
2023-04-27T03:05:54.542Z,105.75
2023-04-27T03:08:26.211Z,105.07
2023-04-27T03:10:53.968Z,101.43
2023-04-27T03:13:21.602Z,102.42
2023-04-27T03:15:49.500Z,110.33
2023-04-27T03:18:17.074Z,120.24
2023-04-27T03:20:44.659Z,101.97
2023-04-27T03:23:12.307Z,107.21
2023-04-27T03:25:41.193Z,118.17
2023-04-27T03:28:08.863Z,106.80
2023-04-27T03:30:39.207Z,127.38
2023-04-27T03:33:07.034Z,110.71
2023-04-27T03:35:34.735Z,115.43
2023-04-27T03:38:02.572Z,108.35
2023-04-27T03:40:30.182Z,114.10
2023-04-27T03:42:59.371Z,120.11
2023-04-27T03:45:27.022Z,119.68
2023-04-27T03:47:54.722Z,101.75
2023-04-27T03:50:22.470Z,121.43
2023-04-27T03:52:50.118Z,129.19
2023-04-27T03:55:17.920Z,91.99
2023-04-27T03:57:45.532Z,90.86
2023-04-27T04:00:15.261Z,100.18
2023-04-27T04:02:42.944Z,91.85
2023-04-27T04:05:11.520Z,111.51
2023-04-27T04:07:39.105Z,110.85
2023-04-27T04:10:08.122Z,159.96
2023-04-27T04:12:35.900Z,104.78
2023-04-27T04:15:03.789Z,101.52
2023-04-27T04:17:32.939Z,90.66
2023-04-27T04:20:00.657Z,124.58
2023-04-27T04:22:28.354Z,98.78
2023-04-27T04:24:56.073Z,123.70
2023-04-27T04:27:23.647Z,123.38
2023-04-27T04:29:51.234Z,125.18
2023-04-27T04:32:18.874Z,151.77
2023-04-27T04:34:50.152Z,140.98
2023-04-27T04:37:17.786Z,148.01
2023-04-27T04:39:45.465Z,168.31
2023-04-27T04:42:13.122Z,137.29
2023-04-27T04:44:40.829Z,156.82
2023-04-27T04:47:08.495Z,144.96
2023-04-27T04:49:36.492Z,148.24
2023-04-27T04:52:05.496Z,148.30
2023-04-27T04:54:33.145Z,173.92
2023-04-27T04:57:00.731Z,166.87
2023-04-27T04:59:29.878Z,205.49
2023-04-27T05:01:59.500Z,183.64
2023-04-27T05:04:27.252Z,181.39
2023-04-27T05:06:54.951Z,177.36
2023-04-27T05:09:24.104Z,174.34
2023-04-27T05:11:51.799Z,180.38
2023-04-27T05:14:19.486Z,183.05
2023-04-27T05:16:49.680Z,186.67
2023-04-27T05:19:17.385Z,168.35
2023-04-27T05:21:45.011Z,164.08
2023-04-27T05:24:13.014Z,152.37
2023-04-27T05:26:43.754Z,163.56
2023-04-27T05:29:11.693Z,153.28
2023-04-27T05:31:39.529Z,136.86
2023-04-27T05:34:07.119Z,135.25
2023-04-27T05:36:34.732Z,164.74
2023-04-27T05:39:02.789Z,121.95
2023-04-27T05:41:31.973Z,116.78
2023-04-27T05:44:01.316Z,114.22
2023-04-27T05:46:29.218Z,108.96
2023-04-27T05:48:56.972Z,114.75
2023-04-27T05:51:24.693Z,116.26
2023-04-27T05:53:53.392Z,107.04
2023-04-27T05:56:21.092Z,103.10
2023-04-27T05:58:48.676Z,102.45
2023-04-27T06:01:17.853Z,113.32
2023-04-27T06:03:45.843Z,98.82
2023-04-27T06:06:13.705Z,88.72
2023-04-27T06:08:41.272Z,115.86
2023-04-27T06:11:08.912Z,72.14
2023-04-27T06:13:36.592Z,58.56
2023-04-27T06:16:04.938Z,51.78
2023-04-27T06:18:33.878Z,46.28
2023-04-27T06:21:02.253Z,40.80
2023-04-27T06:23:30.019Z,45.98
2023-04-27T06:25:57.651Z,60.01
2023-04-27T06:28:25.209Z,71.62
2023-04-27T06:30:53.600Z,62.13
2023-04-27T06:33:21.248Z,57.14
2023-04-27T06:35:50.458Z,65.86
2023-04-27T06:38:17.981Z,51.43
2023-04-27T06:40:49.746Z,61.21
2023-04-27T06:43:17.348Z,80.36
2023-04-27T06:45:45.008Z,71.01
2023-04-27T06:48:12.683Z,174.12
2023-04-27T06:50:42.579Z,93.64
2023-04-27T06:53:11.534Z,90.67
2023-04-27T06:55:41.666Z,97.25
2023-04-27T06:58:11.564Z,74.88
2023-04-27T07:00:39.267Z,74.43
2023-04-27T07:03:07.013Z,73.94
2023-04-27T07:05:34.638Z,65.10
2023-04-27T07:08:06.037Z,45.78
2023-04-27T07:10:36.795Z,47.25
2023-04-27T07:13:06.341Z,65.70
2023-04-27T07:15:35.867Z,85.29
2023-04-27T07:18:03.886Z,77.88
2023-04-27T07:20:31.642Z,88.79
2023-04-27T07:22:59.388Z,77.86
2023-04-27T07:25:27.031Z,65.43
2023-04-27T07:27:55.933Z,66.64
2023-04-27T07:30:23.607Z,67.76
2023-04-27T07:32:51.435Z,69.74
2023-04-27T07:35:19.042Z,93.21
2023-04-27T07:37:46.936Z,92.03
2023-04-27T07:40:14.760Z,167.24
2023-04-27T07:42:42.668Z,62.53
2023-04-27T07:45:12.253Z,56.58
2023-04-27T07:47:39.962Z,69.60
2023-04-27T07:50:08.727Z,54.92
2023-04-27T07:52:36.378Z,50.50
2023-04-27T07:55:06.622Z,48.17
2023-04-27T07:57:34.358Z,53.27
2023-04-27T08:00:02.605Z,45.98
2023-04-27T08:02:31.859Z,37.21
2023-04-27T08:04:59.917Z,35.68
2023-04-27T08:07:28.216Z,37.99
2023-04-27T08:09:55.955Z,33.79
2023-04-27T08:12:23.611Z,39.99
2023-04-27T08:14:51.255Z,35.47
2023-04-27T08:17:19.114Z,36.83
2023-04-27T08:19:48.337Z,36.13
2023-04-27T08:22:16.087Z,35.14
2023-04-27T08:24:43.764Z,42.01
2023-04-27T08:27:11.415Z,45.29
2023-04-27T08:29:39.110Z,34.79
2023-04-27T08:32:06.796Z,37.14
2023-04-27T08:34:34.454Z,46.84
2023-04-27T08:37:03.465Z,41.91
2023-04-27T08:39:31.290Z,37.33
2023-04-27T08:41:59.103Z,30.51
2023-04-27T08:44:26.782Z,39.04
2023-04-27T08:46:54.537Z,49.84
2023-04-27T08:49:22.315Z,52.98
2023-04-27T08:51:50.086Z,57.65
2023-04-27T08:54:19.423Z,58.51
2023-04-27T08:56:47.089Z,45.38
2023-04-27T08:59:16.757Z,54.17
2023-04-27T09:01:45.439Z,95.11
2023-04-27T09:04:13.319Z,92.88
2023-04-27T09:06:41.293Z,66.05
2023-04-27T09:09:08.911Z,40.58
2023-04-27T09:11:39.187Z,31.39
2023-04-27T09:14:17.263Z,34.11
2023-04-27T09:16:45.961Z,18.66
2023-04-27T09:19:23.806Z,20.02
2023-04-27T09:21:51.479Z,31.97
2023-04-27T09:24:19.179Z,31.27
2023-04-27T09:26:50.715Z,34.66
2023-04-27T09:29:18.411Z,39.66
2023-04-27T09:31:46.116Z,29.37
2023-04-27T09:34:13.752Z,26.73
2023-04-27T09:36:42.318Z,27.65
2023-04-27T09:39:10.322Z,27.37
2023-04-27T09:41:38.382Z,34.03
2023-04-27T09:44:07.792Z,44.07
2023-04-27T09:46:36.065Z,34.69
2023-04-27T09:49:04.853Z,29.13
2023-04-27T09:51:33.767Z,36.84
2023-04-27T09:54:04.526Z,52.34
2023-04-27T09:56:50.954Z,55.97
2023-04-27T09:59:41.571Z,49.77
2023-04-27T10:02:24.264Z,54.68
2023-04-27T10:05:25.031Z,49.84
2023-04-27T10:07:53.127Z,51.13
2023-04-27T10:10:21.133Z,45.42
2023-04-27T10:13:01.256Z,35.15
2023-04-27T10:15:30.404Z,43.95
2023-04-27T10:18:04.962Z,57.98
2023-04-27T10:20:36.176Z,46.58
2023-04-27T10:23:04.459Z,47.81
2023-04-27T10:25:39.558Z,41.17
2023-04-27T10:28:07.219Z,46.64
2023-04-27T10:30:38.373Z,58.55
2023-04-27T10:33:08.009Z,58.94
2023-04-27T10:35:39.713Z,53.30
2023-04-27T10:38:09.201Z,49.52
2023-04-27T10:40:38.037Z,44.04
2023-04-27T10:43:09.797Z,38.88
2023-04-27T10:45:39.284Z,38.42
2023-04-27T10:48:07.193Z,35.60
2023-04-27T10:50:35.244Z,38.38
2023-04-27T10:53:05.334Z,39.17
2023-04-27T10:55:34.745Z,128.79
2023-04-27T10:58:02.817Z,29.97
2023-04-27T11:00:31.825Z,106.26
2023-04-27T11:03:14.940Z,33.65
2023-04-27T11:05:46.007Z,43.52
2023-04-27T11:08:16.602Z,31.59
2023-04-27T11:10:47.034Z,49.33
2023-04-27T11:13:17.082Z,43.81
2023-04-27T11:15:46.550Z,47.31
2023-04-27T11:18:16.309Z,47.76
2023-04-27T11:20:45.223Z,46.69
2023-04-27T11:23:23.108Z,31.27
2023-04-27T11:25:50.919Z,31.93
2023-04-27T11:28:19.162Z,63.23
2023-04-27T11:30:46.918Z,40.60
2023-04-27T11:33:15.827Z,32.53
2023-04-27T11:35:43.485Z,43.26
2023-04-27T11:38:16.136Z,29.55
2023-04-27T11:40:44.332Z,30.08
2023-04-27T11:43:14.588Z,29.29
2023-04-27T11:45:42.494Z,27.73
2023-04-27T11:48:13.903Z,28.99
2023-04-27T11:50:46.772Z,31.82
2023-04-27T11:53:16.793Z,29.49
2023-04-27T11:55:52.540Z,30.07
2023-04-27T11:58:21.390Z,30.54
2023-04-27T12:00:49.017Z,32.37
2023-04-27T12:03:16.930Z,33.60
2023-04-27T12:05:49.671Z,37.50
2023-04-27T12:08:17.469Z,29.49
2023-04-27T12:10:45.300Z,34.71
2023-04-27T12:13:13.500Z,28.51
2023-04-27T12:15:42.141Z,26.70
2023-04-27T12:18:10.903Z,33.11
2023-04-27T12:20:38.573Z,38.48
2023-04-27T12:23:07.486Z,40.17
2023-04-27T12:25:35.083Z,29.66
2023-04-27T12:28:02.682Z,34.53
2023-04-27T12:30:30.290Z,42.63
2023-04-27T12:32:58.012Z,34.90
2023-04-27T12:35:25.632Z,30.73
2023-04-27T12:37:53.203Z,40.46
2023-04-27T12:40:22.195Z,33.27
2023-04-27T12:42:49.820Z,30.85
2023-04-27T12:45:17.459Z,32.24
2023-04-27T12:48:01.097Z,30.87
2023-04-27T12:50:31.042Z,34.53
2023-04-27T12:52:59.616Z,36.48
2023-04-27T12:55:32.875Z,56.00
2023-04-27T12:58:02.533Z,51.77
2023-04-27T13:00:30.429Z,29.57
2023-04-27T13:02:58.245Z,26.96
2023-04-27T13:05:26.187Z,37.79
2023-04-27T13:07:53.764Z,21.15
2023-04-27T13:10:21.386Z,17.41
2023-04-27T13:12:50.383Z,22.18
2023-04-27T13:15:18.164Z,21.39
2023-04-27T13:17:45.995Z,23.24
2023-04-27T13:20:13.886Z,20.58
2023-04-27T13:22:41.432Z,23.21
2023-04-27T13:25:11.476Z,24.23
2023-04-27T13:27:39.342Z,23.17
2023-04-27T13:30:09.742Z,22.97
2023-04-27T13:32:37.751Z,24.23
2023-04-27T13:35:06.050Z,39.47
2023-04-27T13:37:33.624Z,42.27
2023-04-27T13:40:01.251Z,29.61
2023-04-27T13:42:28.832Z,35.43
2023-04-27T13:44:56.590Z,19.50
2023-04-27T13:47:25.574Z,16.99
2023-04-27T13:49:53.329Z,14.09
2023-04-27T13:52:20.999Z,14.01
2023-04-27T13:54:48.624Z,21.63
2023-04-27T13:57:16.217Z,17.03
2023-04-27T13:59:43.745Z,18.37
2023-04-27T14:02:11.381Z,17.33
2023-04-27T14:04:40.305Z,18.25
2023-04-27T14:07:07.873Z,17.40
2023-04-27T14:09:35.390Z,13.21
2023-04-27T14:12:03.213Z,10.86
2023-04-27T14:14:30.780Z,10.76
2023-04-27T14:16:58.565Z,12.88
2023-04-27T14:19:30.878Z,129.03
2023-04-27T14:22:00.739Z,20.47
2023-04-27T14:24:29.056Z,12.58
2023-04-27T14:26:56.638Z,13.21
2023-04-27T14:29:24.208Z,22.48
2023-04-27T14:31:52.097Z,103.02
2023-04-27T14:34:21.558Z,11.29
2023-04-27T14:36:49.322Z,20.93
2023-04-27T14:39:18.380Z,25.18
2023-04-27T14:41:46.078Z,20.48
2023-04-27T14:44:13.709Z,9.95
2023-04-27T14:46:41.386Z,12.15
2023-04-27T14:49:09.145Z,13.22
2023-04-27T14:51:36.706Z,22.35
2023-04-27T14:54:04.576Z,24.15
2023-04-27T14:56:33.518Z,12.82
2023-04-27T14:59:01.308Z,8.22
2023-04-27T15:01:29.007Z,5.83
2023-04-27T15:03:59.088Z,6.88
2023-04-27T15:06:26.818Z,7.32
2023-04-27T15:08:54.441Z,22.92
2023-04-27T15:11:22.222Z,189.20
2023-04-27T15:13:51.165Z,88.07
2023-04-27T15:16:18.788Z,13.25
2023-04-27T15:18:46.431Z,18.64
2023-04-27T15:21:14.043Z,30.40
2023-04-27T15:23:41.841Z,29.54
2023-04-27T15:26:09.543Z,25.34
2023-04-27T15:28:37.064Z,23.04
2023-04-27T15:31:06.182Z,32.81
2023-04-27T15:33:33.831Z,31.97
2023-04-27T15:36:01.643Z,31.55
2023-04-27T15:38:29.304Z,37.91
2023-04-27T15:40:57.026Z,41.00
2023-04-27T15:43:25.231Z,34.65
2023-04-27T15:45:56.586Z,35.64
2023-04-27T15:48:25.726Z,37.44
2023-04-27T15:50:53.336Z,42.93
2023-04-27T15:53:21.009Z,40.28
2023-04-27T15:55:48.767Z,37.07
2023-04-27T15:58:16.322Z,33.33
2023-04-27T16:00:43.906Z,32.93
2023-04-27T16:03:11.951Z,30.71
2023-04-27T16:05:41.316Z,32.84
2023-04-27T16:08:08.949Z,31.35
2023-04-27T16:10:36.532Z,37.88
2023-04-27T16:13:04.123Z,37.04
2023-04-27T16:15:31.774Z,41.59
2023-04-27T16:18:01.688Z,40.85
2023-04-27T16:20:29.379Z,36.49
2023-04-27T16:22:58.300Z,34.98
2023-04-27T16:25:25.856Z,47.07
2023-04-27T16:27:53.441Z,24.57
2023-04-27T16:30:21.206Z,18.85
2023-04-27T16:32:48.774Z,19.30
2023-04-27T16:35:16.387Z,22.03
2023-04-27T16:37:44.368Z,25.48
2023-04-27T16:40:13.977Z,29.67
2023-04-27T16:42:41.776Z,29.38
2023-04-27T16:45:10.950Z,31.31
2023-04-27T16:47:38.894Z,41.73
2023-04-27T16:50:07.155Z,39.21
2023-04-27T16:52:34.813Z,41.28
2023-04-27T16:55:02.591Z,33.48
2023-04-27T16:57:31.734Z,31.95
2023-04-27T17:00:00.366Z,38.02
2023-04-27T17:02:28.208Z,33.68
2023-04-27T17:04:56.004Z,44.24
2023-04-27T17:07:23.698Z,39.73
2023-04-27T17:09:51.400Z,38.14
2023-04-27T17:12:19.249Z,38.73
2023-04-27T17:14:48.388Z,34.31
2023-04-27T17:17:16.163Z,36.79
2023-04-27T17:19:43.823Z,35.70
2023-04-27T17:22:11.585Z,35.79
2023-04-27T17:24:39.369Z,38.04
2023-04-27T17:27:07.053Z,40.52
2023-04-27T17:29:34.801Z,41.64
2023-04-27T17:32:03.865Z,39.97
2023-04-27T17:34:31.586Z,40.81
2023-04-27T17:36:59.149Z,38.79
2023-04-27T17:39:26.788Z,40.97
2023-04-27T17:41:54.724Z,44.47
2023-04-27T17:44:22.631Z,42.94
2023-04-27T17:46:51.576Z,44.28
2023-04-27T17:49:20.661Z,44.17
2023-04-27T17:51:48.805Z,45.82
2023-04-27T17:54:16.360Z,44.71
2023-04-27T17:56:44.356Z,42.80
2023-04-27T17:59:11.890Z,44.83
2023-04-27T18:01:39.570Z,45.24
2023-04-27T18:04:07.541Z,47.34
2023-04-27T18:06:36.691Z,45.08
2023-04-27T18:09:04.377Z,40.24
2023-04-27T18:11:32.405Z,43.02
2023-04-27T18:14:00.341Z,44.80
2023-04-27T18:16:27.977Z,37.84
2023-04-27T18:18:56.944Z,36.59
2023-04-27T18:21:24.519Z,36.06
2023-04-27T18:23:53.646Z,37.13
2023-04-27T18:26:21.319Z,44.10
2023-04-27T18:28:50.098Z,44.07
2023-04-27T18:31:19.196Z,40.73
2023-04-27T18:33:47.513Z,38.09
2023-04-27T18:36:15.128Z,38.90
2023-04-27T18:38:42.810Z,40.05
2023-04-27T18:41:11.710Z,38.41
2023-04-27T18:43:39.312Z,34.35
2023-04-27T18:46:07.763Z,33.81
2023-04-27T18:48:35.441Z,39.01
2023-04-27T18:51:03.411Z,41.72
2023-04-27T18:53:31.007Z,35.51
2023-04-27T18:55:58.560Z,34.52
2023-04-27T18:58:27.822Z,32.58
2023-04-27T19:00:55.463Z,32.32
2023-04-27T19:03:23.218Z,29.41
2023-04-27T19:05:50.942Z,30.50
2023-04-27T19:08:18.582Z,33.17
2023-04-27T19:10:46.335Z,31.48
2023-04-27T19:13:13.980Z,33.97
2023-04-27T19:15:42.880Z,56.93
2023-04-27T19:18:11.697Z,42.76
2023-04-27T19:20:42.089Z,38.84
2023-04-27T19:23:09.980Z,36.33
2023-04-27T19:25:38.017Z,38.97
2023-04-27T19:28:05.723Z,39.90
2023-04-27T19:30:33.623Z,29.19
2023-04-27T19:33:02.581Z,35.87
2023-04-27T19:35:30.264Z,39.11
2023-04-27T19:37:57.906Z,33.33
2023-04-27T19:40:25.633Z,31.32
2023-04-27T19:42:53.251Z,42.09
2023-04-27T19:45:20.833Z,45.00
2023-04-27T19:47:48.675Z,45.83
2023-04-27T19:50:17.817Z,44.04
2023-04-27T19:52:45.621Z,39.56
2023-04-27T19:55:13.183Z,44.79
2023-04-27T19:57:40.837Z,37.13
2023-04-27T20:00:09.936Z,37.22
2023-04-27T20:02:37.696Z,37.10
2023-04-27T20:05:07.390Z,47.76
2023-04-27T20:07:36.494Z,37.89
2023-04-27T20:10:05.900Z,30.77
2023-04-27T20:12:51.595Z,27.87
2023-04-27T20:15:21.172Z,25.21
2023-04-27T20:17:48.863Z,22.98
2023-04-27T20:20:16.540Z,24.88
2023-04-27T20:22:45.560Z,25.67
2023-04-27T20:25:13.268Z,23.42
2023-04-27T20:27:41.172Z,24.53
2023-04-27T20:30:09.683Z,26.45
2023-04-27T20:32:37.470Z,37.47
2023-04-27T20:35:06.019Z,36.87
2023-04-27T20:37:34.058Z,40.94
2023-04-27T20:40:03.182Z,48.71
2023-04-27T20:42:30.854Z,48.01
2023-04-27T20:44:59.847Z,45.53
2023-04-27T20:47:27.646Z,39.98
2023-04-27T20:49:55.254Z,45.40
2023-04-27T20:52:22.818Z,37.20
2023-04-27T20:54:51.862Z,33.75
2023-04-27T20:57:20.912Z,33.28
2023-04-27T20:59:48.498Z,37.12
2023-04-27T21:02:16.164Z,38.25
2023-04-27T21:04:43.966Z,45.29
2023-04-27T21:07:11.896Z,46.81
2023-04-27T21:09:39.479Z,30.58
2023-04-27T21:12:07.167Z,42.29
2023-04-27T21:14:36.164Z,50.31
2023-04-27T21:17:03.974Z,46.64
2023-04-27T21:19:31.801Z,43.64
2023-04-27T21:21:59.443Z,32.18
2023-04-27T21:24:28.871Z,37.80
2023-04-27T21:26:56.430Z,45.59
2023-04-27T21:29:24.005Z,35.70
2023-04-27T21:31:52.967Z,66.13
2023-04-27T21:34:20.564Z,36.91
2023-04-27T21:36:48.188Z,30.42
2023-04-27T21:39:15.779Z,42.05
2023-04-27T21:41:43.683Z,34.40
2023-04-27T21:44:11.261Z,36.57
2023-04-27T21:46:40.078Z,34.93
2023-04-27T21:49:09.111Z,42.26
2023-04-27T21:51:36.835Z,43.80
2023-04-27T21:54:04.566Z,39.77
2023-04-27T21:56:32.136Z,34.69
2023-04-27T21:58:59.732Z,35.15
2023-04-27T22:01:27.438Z,36.87
2023-04-27T22:03:55.263Z,74.77
2023-04-27T22:06:24.532Z,31.31
2023-04-27T22:08:53.675Z,26.53
2023-04-27T22:11:21.608Z,30.33
2023-04-27T22:13:49.175Z,31.72
2023-04-27T22:16:17.619Z,33.59
2023-04-27T22:18:45.257Z,38.07
2023-04-27T22:21:12.794Z,47.14
2023-04-27T22:23:42.135Z,42.51
2023-04-27T22:26:09.856Z,32.57
2023-04-27T22:28:37.408Z,36.46
2023-04-27T22:31:05.699Z,40.30
2023-04-27T22:33:33.594Z,37.47
2023-04-27T22:36:01.302Z,37.74
2023-04-27T22:38:29.143Z,38.63
2023-04-27T22:40:58.128Z,41.94
2023-04-27T22:43:25.925Z,48.59
2023-04-27T22:45:53.627Z,40.97
2023-04-27T22:48:21.277Z,44.89
2023-04-27T22:50:49.117Z,53.21
2023-04-27T22:53:16.794Z,39.53
2023-04-27T22:55:44.502Z,45.56
2023-04-27T22:58:13.557Z,45.24
2023-04-27T23:00:42.550Z,41.86
2023-04-27T23:03:10.289Z,34.11
2023-04-27T23:05:38.116Z,37.24
2023-04-27T23:08:05.818Z,35.57
2023-04-27T23:10:33.595Z,36.18
2023-04-27T23:13:01.290Z,36.49
2023-04-27T23:15:30.313Z,40.09
2023-04-27T23:17:57.897Z,46.69
2023-04-27T23:20:28.726Z,38.36
2023-04-27T23:22:57.037Z,38.83
2023-04-27T23:25:24.893Z,46.47
2023-04-27T23:27:52.998Z,45.44
2023-04-27T23:30:21.302Z,39.06
2023-04-27T23:32:50.568Z,41.01
2023-04-27T23:35:18.453Z,36.53
2023-04-27T23:37:45.986Z,33.12
2023-04-27T23:40:13.657Z,36.19
2023-04-27T23:42:41.240Z,37.61
2023-04-27T23:45:09.787Z,35.08
2023-04-27T23:47:37.388Z,39.24
2023-04-27T23:50:07.656Z,33.07
2023-04-27T23:52:35.416Z,32.63
2023-04-27T23:55:03.254Z,29.33
2023-04-27T23:57:30.876Z,34.54
2023-04-27T23:59:58.453Z,40.60
